sensor_id;sensor_type;location;lat;lon;timestamp;P1;durP1;ratioP1;P2;durP2;ratioP2
5650;SDS011;40241;52.684;9.758;2024-02-21T00:00:33;12.37;;;7.43;;
5650;SDS011;40241;52.684;9.758;2024-02-21T00:02:58;11.30;;;7.43;;
5650;SDS011;40241;52.684;9.758;2024-02-21T00:05:27;11.33;;;7.50;;
5650;SDS011;40241;52.684;9.758;2024-02-21T00:07:52;19.20;;;13.40;;
5650;SDS011;40241;52.684;9.758;2024-02-21T00:10:17;11.13;;;7.63;;
5650;SDS011;40241;52.684;9.758;2024-02-21T00:12:43;20.53;;;8.00;;
5650;SDS011;40241;52.684;9.758;2024-02-21T00:15:08;12.00;;;7.93;;
5650;SDS011;40241;52.684;9.758;2024-02-21T00:17:34;14.03;;;6.87;;
5650;SDS011;40241;52.684;9.758;2024-02-21T00:19:59;11.80;;;8.10;;
5650;SDS011;40241;52.684;9.758;2024-02-21T00:22:24;13.23;;;7.60;;
5650;SDS011;40241;52.684;9.758;2024-02-21T00:24:53;12.47;;;7.87;;
5650;SDS011;40241;52.684;9.758;2024-02-21T00:27:18;14.37;;;8.03;;
5650;SDS011;40241;52.684;9.758;2024-02-21T00:29:43;13.30;;;8.80;;
5650;SDS011;40241;52.684;9.758;2024-02-21T00:32:09;13.23;;;7.30;;
5650;SDS011;40241;52.684;9.758;2024-02-21T00:34:34;14.00;;;7.43;;
5650;SDS011;40241;52.684;9.758;2024-02-21T00:37:00;11.43;;;7.70;;
5650;SDS011;40241;52.684;9.758;2024-02-21T00:39:26;14.60;;;9.10;;
5650;SDS011;40241;52.684;9.758;2024-02-21T00:41:51;15.23;;;8.70;;
5650;SDS011;40241;52.684;9.758;2024-02-21T00:44:16;15.77;;;9.37;;
5650;SDS011;40241;52.684;9.758;2024-02-21T00:46:42;15.77;;;8.20;;
5650;SDS011;40241;52.684;9.758;2024-02-21T00:49:07;16.10;;;7.40;;
5650;SDS011;40241;52.684;9.758;2024-02-21T00:51:32;15.93;;;8.63;;
5650;SDS011;40241;52.684;9.758;2024-02-21T00:53:58;13.63;;;8.63;;
5650;SDS011;40241;52.684;9.758;2024-02-21T00:56:23;14.67;;;8.63;;
5650;SDS011;40241;52.684;9.758;2024-02-21T00:58:48;14.63;;;8.33;;
5650;SDS011;40241;52.684;9.758;2024-02-21T01:01:20;12.97;;;8.27;;
5650;SDS011;40241;52.684;9.758;2024-02-21T01:03:46;14.67;;;8.43;;
5650;SDS011;40241;52.684;9.758;2024-02-21T01:06:11;14.00;;;8.97;;
5650;SDS011;40241;52.684;9.758;2024-02-21T01:08:37;12.80;;;8.80;;
5650;SDS011;40241;52.684;9.758;2024-02-21T01:11:02;16.80;;;8.80;;
5650;SDS011;40241;52.684;9.758;2024-02-21T01:13:27;15.60;;;8.67;;
5650;SDS011;40241;52.684;9.758;2024-02-21T01:15:53;18.40;;;10.00;;
5650;SDS011;40241;52.684;9.758;2024-02-21T01:18:19;14.00;;;9.10;;
5650;SDS011;40241;52.684;9.758;2024-02-21T01:20:44;17.47;;;9.83;;
5650;SDS011;40241;52.684;9.758;2024-02-21T01:23:09;13.87;;;10.00;;
5650;SDS011;40241;52.684;9.758;2024-02-21T01:25:34;17.23;;;10.50;;
5650;SDS011;40241;52.684;9.758;2024-02-21T01:28:00;18.30;;;9.97;;
5650;SDS011;40241;52.684;9.758;2024-02-21T01:30:25;14.60;;;10.13;;
5650;SDS011;40241;52.684;9.758;2024-02-21T01:32:50;18.77;;;9.93;;
5650;SDS011;40241;52.684;9.758;2024-02-21T01:35:16;16.73;;;10.27;;
5650;SDS011;40241;52.684;9.758;2024-02-21T01:37:41;19.10;;;11.70;;
5650;SDS011;40241;52.684;9.758;2024-02-21T01:40:06;21.50;;;11.77;;
5650;SDS011;40241;52.684;9.758;2024-02-21T01:42:32;17.93;;;10.50;;
5650;SDS011;40241;52.684;9.758;2024-02-21T01:44:57;17.33;;;11.30;;
5650;SDS011;40241;52.684;9.758;2024-02-21T01:47:23;19.97;;;13.27;;
5650;SDS011;40241;52.684;9.758;2024-02-21T01:49:49;17.77;;;11.70;;
5650;SDS011;40241;52.684;9.758;2024-02-21T01:52:14;16.13;;;10.50;;
5650;SDS011;40241;52.684;9.758;2024-02-21T01:54:41;23.03;;;13.03;;
5650;SDS011;40241;52.684;9.758;2024-02-21T01:57:08;21.30;;;12.70;;
5650;SDS011;40241;52.684;9.758;2024-02-21T01:59:33;20.10;;;11.90;;
5650;SDS011;40241;52.684;9.758;2024-02-21T02:02:00;18.93;;;11.97;;
5650;SDS011;40241;52.684;9.758;2024-02-21T02:04:27;23.20;;;12.00;;
5650;SDS011;40241;52.684;9.758;2024-02-21T02:06:53;21.33;;;12.43;;
5650;SDS011;40241;52.684;9.758;2024-02-21T02:09:20;15.43;;;11.13;;
5650;SDS011;40241;52.684;9.758;2024-02-21T02:11:45;20.27;;;12.10;;
5650;SDS011;40241;52.684;9.758;2024-02-21T02:14:10;18.27;;;12.40;;
5650;SDS011;40241;52.684;9.758;2024-02-21T02:16:36;22.13;;;11.93;;
5650;SDS011;40241;52.684;9.758;2024-02-21T02:19:01;23.70;;;12.20;;
5650;SDS011;40241;52.684;9.758;2024-02-21T02:21:30;15.60;;;11.93;;
5650;SDS011;40241;52.684;9.758;2024-02-21T02:24:04;14.93;;;12.17;;
5650;SDS011;40241;52.684;9.758;2024-02-21T02:26:29;21.03;;;12.33;;
5650;SDS011;40241;52.684;9.758;2024-02-21T02:28:55;18.53;;;12.43;;
5650;SDS011;40241;52.684;9.758;2024-02-21T02:31:20;25.63;;;12.90;;
5650;SDS011;40241;52.684;9.758;2024-02-21T02:33:45;24.77;;;13.70;;
5650;SDS011;40241;52.684;9.758;2024-02-21T02:36:11;21.63;;;12.33;;
5650;SDS011;40241;52.684;9.758;2024-02-21T02:38:36;20.00;;;13.30;;
5650;SDS011;40241;52.684;9.758;2024-02-21T02:41:02;25.93;;;13.30;;
5650;SDS011;40241;52.684;9.758;2024-02-21T02:43:27;18.03;;;12.87;;
5650;SDS011;40241;52.684;9.758;2024-02-21T02:45:52;18.23;;;13.47;;
5650;SDS011;40241;52.684;9.758;2024-02-21T02:48:18;19.30;;;12.57;;
5650;SDS011;40241;52.684;9.758;2024-02-21T02:50:44;18.93;;;13.27;;
5650;SDS011;40241;52.684;9.758;2024-02-21T02:53:10;19.90;;;13.10;;
5650;SDS011;40241;52.684;9.758;2024-02-21T02:55:36;21.33;;;13.30;;
5650;SDS011;40241;52.684;9.758;2024-02-21T02:58:01;20.53;;;12.73;;
5650;SDS011;40241;52.684;9.758;2024-02-21T03:00:27;18.90;;;13.03;;
5650;SDS011;40241;52.684;9.758;2024-02-21T03:02:52;16.77;;;12.70;;
5650;SDS011;40241;52.684;9.758;2024-02-21T03:05:19;19.23;;;12.03;;
5650;SDS011;40241;52.684;9.758;2024-02-21T03:07:45;17.50;;;12.07;;
5650;SDS011;40241;52.684;9.758;2024-02-21T03:10:12;20.97;;;13.40;;
5650;SDS011;40241;52.684;9.758;2024-02-21T03:12:38;17.43;;;13.00;;
5650;SDS011;40241;52.684;9.758;2024-02-21T03:15:04;19.00;;;13.03;;
5650;SDS011;40241;52.684;9.758;2024-02-21T03:17:30;25.00;;;13.47;;
5650;SDS011;40241;52.684;9.758;2024-02-21T03:19:56;17.20;;;12.70;;
5650;SDS011;40241;52.684;9.758;2024-02-21T03:22:22;21.57;;;11.90;;
5650;SDS011;40241;52.684;9.758;2024-02-21T03:24:47;19.53;;;12.67;;
5650;SDS011;40241;52.684;9.758;2024-02-21T03:27:13;17.27;;;12.60;;
5650;SDS011;40241;52.684;9.758;2024-02-21T03:29:38;20.57;;;13.13;;
5650;SDS011;40241;52.684;9.758;2024-02-21T03:32:03;20.50;;;12.70;;
5650;SDS011;40241;52.684;9.758;2024-02-21T03:34:29;16.77;;;11.93;;
5650;SDS011;40241;52.684;9.758;2024-02-21T03:36:54;20.17;;;12.73;;
5650;SDS011;40241;52.684;9.758;2024-02-21T03:39:20;20.53;;;12.90;;
5650;SDS011;40241;52.684;9.758;2024-02-21T03:41:46;16.97;;;12.93;;
5650;SDS011;40241;52.684;9.758;2024-02-21T03:44:11;16.67;;;12.13;;
5650;SDS011;40241;52.684;9.758;2024-02-21T03:46:37;15.90;;;12.40;;
5650;SDS011;40241;52.684;9.758;2024-02-21T03:49:02;17.10;;;12.70;;
5650;SDS011;40241;52.684;9.758;2024-02-21T03:51:27;17.17;;;11.93;;
5650;SDS011;40241;52.684;9.758;2024-02-21T03:53:53;20.93;;;11.80;;
5650;SDS011;40241;52.684;9.758;2024-02-21T03:56:18;15.30;;;11.90;;
5650;SDS011;40241;52.684;9.758;2024-02-21T03:58:43;23.47;;;12.57;;
5650;SDS011;40241;52.684;9.758;2024-02-21T04:01:09;15.73;;;12.10;;
5650;SDS011;40241;52.684;9.758;2024-02-21T04:03:34;16.13;;;11.40;;
5650;SDS011;40241;52.684;9.758;2024-02-21T04:06:00;16.90;;;11.90;;
5650;SDS011;40241;52.684;9.758;2024-02-21T04:08:25;18.77;;;12.10;;
5650;SDS011;40241;52.684;9.758;2024-02-21T04:10:50;18.40;;;11.67;;
5650;SDS011;40241;52.684;9.758;2024-02-21T04:13:16;15.63;;;12.00;;
5650;SDS011;40241;52.684;9.758;2024-02-21T04:15:41;16.83;;;11.97;;
5650;SDS011;40241;52.684;9.758;2024-02-21T04:18:06;16.47;;;11.97;;
5650;SDS011;40241;52.684;9.758;2024-02-21T04:20:34;21.07;;;11.60;;
5650;SDS011;40241;52.684;9.758;2024-02-21T04:23:00;15.23;;;11.20;;
5650;SDS011;40241;52.684;9.758;2024-02-21T04:25:25;18.53;;;12.50;;
5650;SDS011;40241;52.684;9.758;2024-02-21T04:27:51;16.43;;;11.33;;
5650;SDS011;40241;52.684;9.758;2024-02-21T04:30:17;21.37;;;12.60;;
5650;SDS011;40241;52.684;9.758;2024-02-21T04:32:42;16.87;;;12.10;;
5650;SDS011;40241;52.684;9.758;2024-02-21T04:35:08;17.10;;;12.33;;
5650;SDS011;40241;52.684;9.758;2024-02-21T04:37:33;16.77;;;11.67;;
5650;SDS011;40241;52.684;9.758;2024-02-21T04:39:58;15.70;;;12.30;;
5650;SDS011;40241;52.684;9.758;2024-02-21T04:42:24;17.33;;;12.53;;
5650;SDS011;40241;52.684;9.758;2024-02-21T04:44:49;20.00;;;12.60;;
5650;SDS011;40241;52.684;9.758;2024-02-21T04:47:15;19.60;;;13.67;;
5650;SDS011;40241;52.684;9.758;2024-02-21T04:49:40;19.67;;;12.63;;
5650;SDS011;40241;52.684;9.758;2024-02-21T04:52:05;16.97;;;12.57;;
5650;SDS011;40241;52.684;9.758;2024-02-21T04:54:31;20.63;;;13.00;;
5650;SDS011;40241;52.684;9.758;2024-02-21T04:56:56;17.87;;;13.40;;
5650;SDS011;40241;52.684;9.758;2024-02-21T04:59:21;19.30;;;13.40;;
5650;SDS011;40241;52.684;9.758;2024-02-21T05:01:47;20.43;;;14.70;;
5650;SDS011;40241;52.684;9.758;2024-02-21T05:04:12;22.57;;;13.97;;
5650;SDS011;40241;52.684;9.758;2024-02-21T05:06:38;22.90;;;14.33;;
5650;SDS011;40241;52.684;9.758;2024-02-21T05:09:05;17.93;;;11.90;;
5650;SDS011;40241;52.684;9.758;2024-02-21T05:11:31;24.03;;;14.23;;
5650;SDS011;40241;52.684;9.758;2024-02-21T05:13:56;21.00;;;13.93;;
5650;SDS011;40241;52.684;9.758;2024-02-21T05:16:21;20.07;;;13.50;;
5650;SDS011;40241;52.684;9.758;2024-02-21T05:18:47;20.67;;;14.67;;
5650;SDS011;40241;52.684;9.758;2024-02-21T05:21:12;18.43;;;13.43;;
5650;SDS011;40241;52.684;9.758;2024-02-21T05:23:38;17.63;;;13.77;;
5650;SDS011;40241;52.684;9.758;2024-02-21T05:26:04;19.10;;;13.30;;
5650;SDS011;40241;52.684;9.758;2024-02-21T05:28:30;19.50;;;14.77;;
5650;SDS011;40241;52.684;9.758;2024-02-21T05:30:55;22.67;;;14.77;;
5650;SDS011;40241;52.684;9.758;2024-02-21T05:33:21;21.07;;;14.80;;
5650;SDS011;40241;52.684;9.758;2024-02-21T05:35:46;18.87;;;13.10;;
5650;SDS011;40241;52.684;9.758;2024-02-21T05:38:13;24.30;;;15.03;;
5650;SDS011;40241;52.684;9.758;2024-02-21T05:40:38;24.90;;;15.30;;
5650;SDS011;40241;52.684;9.758;2024-02-21T05:43:04;17.87;;;14.40;;
5650;SDS011;40241;52.684;9.758;2024-02-21T05:45:29;25.07;;;15.17;;
5650;SDS011;40241;52.684;9.758;2024-02-21T05:47:54;25.23;;;15.20;;
5650;SDS011;40241;52.684;9.758;2024-02-21T05:50:20;21.10;;;16.27;;
5650;SDS011;40241;52.684;9.758;2024-02-21T05:52:46;19.97;;;15.07;;
5650;SDS011;40241;52.684;9.758;2024-02-21T05:55:12;20.83;;;13.80;;
5650;SDS011;40241;52.684;9.758;2024-02-21T05:57:37;22.50;;;16.27;;
5650;SDS011;40241;52.684;9.758;2024-02-21T06:00:03;25.63;;;17.60;;
5650;SDS011;40241;52.684;9.758;2024-02-21T06:02:30;23.03;;;15.70;;
5650;SDS011;40241;52.684;9.758;2024-02-21T06:04:55;22.80;;;16.63;;
5650;SDS011;40241;52.684;9.758;2024-02-21T06:07:20;22.23;;;16.47;;
5650;SDS011;40241;52.684;9.758;2024-02-21T06:09:46;23.40;;;16.00;;
5650;SDS011;40241;52.684;9.758;2024-02-21T06:12:11;23.37;;;16.80;;
5650;SDS011;40241;52.684;9.758;2024-02-21T06:14:36;24.40;;;15.63;;
5650;SDS011;40241;52.684;9.758;2024-02-21T06:17:02;20.07;;;14.77;;
5650;SDS011;40241;52.684;9.758;2024-02-21T06:19:27;21.40;;;15.33;;
5650;SDS011;40241;52.684;9.758;2024-02-21T06:21:53;23.60;;;16.20;;
5650;SDS011;40241;52.684;9.758;2024-02-21T06:24:18;23.73;;;16.80;;
5650;SDS011;40241;52.684;9.758;2024-02-21T06:26:43;24.90;;;16.47;;
5650;SDS011;40241;52.684;9.758;2024-02-21T06:29:09;23.53;;;16.50;;
5650;SDS011;40241;52.684;9.758;2024-02-21T06:31:35;19.80;;;15.57;;
5650;SDS011;40241;52.684;9.758;2024-02-21T06:34:01;26.40;;;17.60;;
5650;SDS011;40241;52.684;9.758;2024-02-21T06:36:26;22.60;;;16.50;;
5650;SDS011;40241;52.684;9.758;2024-02-21T06:38:52;26.20;;;16.63;;
5650;SDS011;40241;52.684;9.758;2024-02-21T06:41:17;30.13;;;17.83;;
5650;SDS011;40241;52.684;9.758;2024-02-21T06:43:44;27.70;;;16.10;;
5650;SDS011;40241;52.684;9.758;2024-02-21T06:46:11;20.60;;;16.23;;
5650;SDS011;40241;52.684;9.758;2024-02-21T06:48:36;25.67;;;16.30;;
5650;SDS011;40241;52.684;9.758;2024-02-21T06:51:02;23.07;;;16.00;;
5650;SDS011;40241;52.684;9.758;2024-02-21T06:53:28;25.20;;;16.17;;
5650;SDS011;40241;52.684;9.758;2024-02-21T06:55:53;21.97;;;15.90;;
5650;SDS011;40241;52.684;9.758;2024-02-21T06:58:19;26.23;;;16.30;;
5650;SDS011;40241;52.684;9.758;2024-02-21T07:00:44;25.50;;;16.63;;
5650;SDS011;40241;52.684;9.758;2024-02-21T07:03:09;18.70;;;14.70;;
5650;SDS011;40241;52.684;9.758;2024-02-21T07:05:35;22.10;;;15.17;;
5650;SDS011;40241;52.684;9.758;2024-02-21T07:08:00;23.70;;;15.90;;
5650;SDS011;40241;52.684;9.758;2024-02-21T07:10:27;23.47;;;15.40;;
5650;SDS011;40241;52.684;9.758;2024-02-21T07:12:54;21.07;;;15.40;;
5650;SDS011;40241;52.684;9.758;2024-02-21T07:15:19;20.07;;;14.73;;
5650;SDS011;40241;52.684;9.758;2024-02-21T07:17:45;22.40;;;14.67;;
5650;SDS011;40241;52.684;9.758;2024-02-21T07:20:10;26.60;;;14.93;;
5650;SDS011;40241;52.684;9.758;2024-02-21T07:22:35;22.17;;;14.40;;
5650;SDS011;40241;52.684;9.758;2024-02-21T07:25:01;19.73;;;14.50;;
5650;SDS011;40241;52.684;9.758;2024-02-21T07:27:26;20.97;;;14.80;;
5650;SDS011;40241;52.684;9.758;2024-02-21T07:29:55;16.93;;;14.50;;
5650;SDS011;40241;52.684;9.758;2024-02-21T07:32:21;19.50;;;15.10;;
5650;SDS011;40241;52.684;9.758;2024-02-21T07:34:46;19.97;;;15.70;;
5650;SDS011;40241;52.684;9.758;2024-02-21T07:37:11;18.10;;;14.17;;
5650;SDS011;40241;52.684;9.758;2024-02-21T07:39:37;22.60;;;15.83;;
5650;SDS011;40241;52.684;9.758;2024-02-21T07:42:02;18.50;;;15.20;;
5650;SDS011;40241;52.684;9.758;2024-02-21T07:44:28;20.93;;;14.67;;
5650;SDS011;40241;52.684;9.758;2024-02-21T07:46:53;19.10;;;14.50;;
5650;SDS011;40241;52.684;9.758;2024-02-21T07:49:18;20.07;;;15.17;;
5650;SDS011;40241;52.684;9.758;2024-02-21T07:51:44;25.83;;;15.87;;
5650;SDS011;40241;52.684;9.758;2024-02-21T07:54:09;19.57;;;14.57;;
5650;SDS011;40241;52.684;9.758;2024-02-21T07:56:34;25.20;;;14.43;;
5650;SDS011;40241;52.684;9.758;2024-02-21T07:58:59;18.90;;;13.40;;
5650;SDS011;40241;52.684;9.758;2024-02-21T08:01:25;21.57;;;13.90;;
5650;SDS011;40241;52.684;9.758;2024-02-21T08:03:50;23.03;;;14.70;;
5650;SDS011;40241;52.684;9.758;2024-02-21T08:06:15;24.60;;;15.07;;
5650;SDS011;40241;52.684;9.758;2024-02-21T08:08:41;21.87;;;13.80;;
5650;SDS011;40241;52.684;9.758;2024-02-21T08:11:06;23.37;;;14.40;;
5650;SDS011;40241;52.684;9.758;2024-02-21T08:13:32;21.10;;;14.53;;
5650;SDS011;40241;52.684;9.758;2024-02-21T08:15:57;21.37;;;14.10;;
5650;SDS011;40241;52.684;9.758;2024-02-21T08:18:22;15.47;;;12.70;;
5650;SDS011;40241;52.684;9.758;2024-02-21T08:20:48;17.70;;;13.13;;
5650;SDS011;40241;52.684;9.758;2024-02-21T08:23:15;20.27;;;13.30;;
5650;SDS011;40241;52.684;9.758;2024-02-21T08:25:41;20.27;;;15.33;;
5650;SDS011;40241;52.684;9.758;2024-02-21T08:28:06;18.37;;;14.00;;
5650;SDS011;40241;52.684;9.758;2024-02-21T08:30:32;18.47;;;12.90;;
5650;SDS011;40241;52.684;9.758;2024-02-21T08:32:58;23.47;;;13.47;;
5650;SDS011;40241;52.684;9.758;2024-02-21T08:35:23;20.67;;;14.80;;
5650;SDS011;40241;52.684;9.758;2024-02-21T08:37:48;17.90;;;12.60;;
5650;SDS011;40241;52.684;9.758;2024-02-21T08:40:14;16.40;;;12.70;;
5650;SDS011;40241;52.684;9.758;2024-02-21T08:42:42;21.23;;;13.67;;
5650;SDS011;40241;52.684;9.758;2024-02-21T08:45:08;20.03;;;13.60;;
5650;SDS011;40241;52.684;9.758;2024-02-21T08:47:34;25.97;;;13.60;;
5650;SDS011;40241;52.684;9.758;2024-02-21T08:50:01;14.73;;;12.80;;
5650;SDS011;40241;52.684;9.758;2024-02-21T08:52:27;19.30;;;12.93;;
5650;SDS011;40241;52.684;9.758;2024-02-21T08:54:52;19.67;;;12.60;;
5650;SDS011;40241;52.684;9.758;2024-02-21T08:57:18;16.50;;;12.50;;
5650;SDS011;40241;52.684;9.758;2024-02-21T08:59:44;23.37;;;13.80;;
5650;SDS011;40241;52.684;9.758;2024-02-21T09:02:09;16.60;;;13.20;;
5650;SDS011;40241;52.684;9.758;2024-02-21T09:04:35;20.03;;;11.63;;
5650;SDS011;40241;52.684;9.758;2024-02-21T09:07:00;21.60;;;13.00;;
5650;SDS011;40241;52.684;9.758;2024-02-21T09:09:25;15.70;;;11.37;;
5650;SDS011;40241;52.684;9.758;2024-02-21T09:11:53;17.47;;;12.10;;
5650;SDS011;40241;52.684;9.758;2024-02-21T09:14:18;18.00;;;11.83;;
5650;SDS011;40241;52.684;9.758;2024-02-21T09:16:43;18.50;;;11.50;;
5650;SDS011;40241;52.684;9.758;2024-02-21T09:19:09;16.90;;;11.80;;
5650;SDS011;40241;52.684;9.758;2024-02-21T09:21:36;24.47;;;11.80;;
5650;SDS011;40241;52.684;9.758;2024-02-21T09:24:02;14.23;;;10.33;;
5650;SDS011;40241;52.684;9.758;2024-02-21T09:26:27;22.50;;;12.90;;
5650;SDS011;40241;52.684;9.758;2024-02-21T09:28:53;17.13;;;11.70;;
5650;SDS011;40241;52.684;9.758;2024-02-21T09:31:18;18.47;;;12.73;;
5650;SDS011;40241;52.684;9.758;2024-02-21T09:33:44;17.87;;;12.50;;
5650;SDS011;40241;52.684;9.758;2024-02-21T09:36:10;17.93;;;12.00;;
5650;SDS011;40241;52.684;9.758;2024-02-21T09:38:35;20.10;;;12.00;;
5650;SDS011;40241;52.684;9.758;2024-02-21T09:41:06;18.77;;;11.30;;
5650;SDS011;40241;52.684;9.758;2024-02-21T09:43:39;18.07;;;12.17;;
5650;SDS011;40241;52.684;9.758;2024-02-21T09:46:06;16.07;;;11.13;;
5650;SDS011;40241;52.684;9.758;2024-02-21T09:51:43;21.10;;;10.97;;
5650;SDS011;40241;52.684;9.758;2024-02-21T09:54:10;13.63;;;10.10;;
5650;SDS011;40241;52.684;9.758;2024-02-21T09:56:35;21.87;;;16.13;;
5650;SDS011;40241;52.684;9.758;2024-02-21T09:59:01;17.90;;;12.17;;
5650;SDS011;40241;52.684;9.758;2024-02-21T10:01:30;16.30;;;10.40;;
5650;SDS011;40241;52.684;9.758;2024-02-21T10:03:56;15.33;;;10.70;;
5650;SDS011;40241;52.684;9.758;2024-02-21T10:06:22;15.47;;;10.30;;
5650;SDS011;40241;52.684;9.758;2024-02-21T10:08:54;23.67;;;10.43;;
5650;SDS011;40241;52.684;9.758;2024-02-21T10:11:23;15.60;;;9.10;;
5650;SDS011;40241;52.684;9.758;2024-02-21T10:13:49;11.83;;;8.93;;
5650;SDS011;40241;52.684;9.758;2024-02-21T10:16:15;14.10;;;8.60;;
5650;SDS011;40241;52.684;9.758;2024-02-21T10:18:40;11.13;;;8.40;;
5650;SDS011;40241;52.684;9.758;2024-02-21T10:21:06;8.60;;;7.30;;
5650;SDS011;40241;52.684;9.758;2024-02-21T10:23:45;12.03;;;6.73;;
5650;SDS011;40241;52.684;9.758;2024-02-21T10:26:11;14.38;;;9.60;;
5650;SDS011;40241;52.684;9.758;2024-02-21T10:28:38;13.67;;;7.90;;
5650;SDS011;40241;52.684;9.758;2024-02-21T10:31:08;14.20;;;7.00;;
5650;SDS011;40241;52.684;9.758;2024-02-21T10:33:34;8.70;;;6.17;;
5650;SDS011;40241;52.684;9.758;2024-02-21T10:36:06;10.10;;;5.50;;
5650;SDS011;40241;52.684;9.758;2024-02-21T10:38:32;8.40;;;5.60;;
5650;SDS011;40241;52.684;9.758;2024-02-21T10:40:58;6.90;;;5.83;;
5650;SDS011;40241;52.684;9.758;2024-02-21T10:43:28;12.20;;;7.13;;
5650;SDS011;40241;52.684;9.758;2024-02-21T10:45:56;5.60;;;5.00;;
5650;SDS011;40241;52.684;9.758;2024-02-21T10:56:48;5.30;;;4.20;;
5650;SDS011;40241;52.684;9.758;2024-02-21T10:59:08;5.77;;;4.80;;
5650;SDS011;40241;52.684;9.758;2024-02-21T11:01:33;9.47;;;5.37;;
5650;SDS011;40241;52.684;9.758;2024-02-21T11:04:07;6.17;;;4.13;;
5650;SDS011;40241;52.684;9.758;2024-02-21T11:06:34;6.00;;;4.70;;
5650;SDS011;40241;52.684;9.758;2024-02-21T11:09:02;9.03;;;5.10;;
5650;SDS011;40241;52.684;9.758;2024-02-21T11:11:29;8.20;;;4.80;;
5650;SDS011;40241;52.684;9.758;2024-02-21T11:16:46;5.30;;;4.40;;
5650;SDS011;40241;52.684;9.758;2024-02-21T11:19:21;10.43;;;4.70;;
5650;SDS011;40241;52.684;9.758;2024-02-21T11:21:48;5.50;;;4.10;;
5650;SDS011;40241;52.684;9.758;2024-02-21T11:24:25;9.60;;;4.00;;
5650;SDS011;40241;52.684;9.758;2024-02-21T11:26:54;4.10;;;3.67;;
5650;SDS011;40241;52.684;9.758;2024-02-21T11:29:23;7.57;;;3.87;;
5650;SDS011;40241;52.684;9.758;2024-02-21T11:31:53;3.57;;;3.13;;
5650;SDS011;40241;52.684;9.758;2024-02-21T11:34:20;9.13;;;3.97;;
5650;SDS011;40241;52.684;9.758;2024-02-21T11:36:49;7.10;;;4.13;;
5650;SDS011;40241;52.684;9.758;2024-02-21T11:39:19;4.23;;;2.97;;
5650;SDS011;40241;52.684;9.758;2024-02-21T11:42:05;10.87;;;3.37;;
5650;SDS011;40241;52.684;9.758;2024-02-21T11:44:32;5.70;;;3.13;;
5650;SDS011;40241;52.684;9.758;2024-02-21T11:46:59;4.53;;;3.40;;
5650;SDS011;40241;52.684;9.758;2024-02-21T11:49:25;3.53;;;2.60;;
5650;SDS011;40241;52.684;9.758;2024-02-21T11:51:58;3.60;;;2.40;;
5650;SDS011;40241;52.684;9.758;2024-02-21T11:54:25;3.90;;;2.60;;
5650;SDS011;40241;52.684;9.758;2024-02-21T11:56:51;2.87;;;2.60;;
5650;SDS011;40241;52.684;9.758;2024-02-21T11:59:16;3.33;;;2.27;;
5650;SDS011;40241;52.684;9.758;2024-02-21T12:01:42;2.97;;;2.50;;
5650;SDS011;40241;52.684;9.758;2024-02-21T12:04:07;5.13;;;2.50;;
5650;SDS011;40241;52.684;9.758;2024-02-21T12:06:33;3.90;;;2.10;;
5650;SDS011;40241;52.684;9.758;2024-02-21T12:08:58;4.40;;;2.47;;
5650;SDS011;40241;52.684;9.758;2024-02-21T12:11:24;7.23;;;1.97;;
5650;SDS011;40241;52.684;9.758;2024-02-21T12:13:59;6.63;;;2.30;;
5650;SDS011;40241;52.684;9.758;2024-02-21T12:16:29;2.77;;;1.80;;
5650;SDS011;40241;52.684;9.758;2024-02-21T12:18:59;2.20;;;1.80;;
5650;SDS011;40241;52.684;9.758;2024-02-21T12:21:25;3.70;;;1.87;;
5650;SDS011;40241;52.684;9.758;2024-02-21T12:23:53;3.03;;;2.17;;
5650;SDS011;40241;52.684;9.758;2024-02-21T12:26:20;4.43;;;2.10;;
5650;SDS011;40241;52.684;9.758;2024-02-21T12:28:45;2.33;;;1.60;;
5650;SDS011;40241;52.684;9.758;2024-02-21T12:31:10;5.67;;;2.50;;
5650;SDS011;40241;52.684;9.758;2024-02-21T12:33:36;3.43;;;2.13;;
5650;SDS011;40241;52.684;9.758;2024-02-21T12:36:01;4.57;;;1.70;;
5650;SDS011;40241;52.684;9.758;2024-02-21T12:38:28;4.33;;;1.67;;
5650;SDS011;40241;52.684;9.758;2024-02-21T12:40:54;1.70;;;1.43;;
5650;SDS011;40241;52.684;9.758;2024-02-21T12:43:20;2.63;;;1.57;;
5650;SDS011;40241;52.684;9.758;2024-02-21T12:45:47;1.27;;;1.17;;
5650;SDS011;40241;52.684;9.758;2024-02-21T12:48:13;1.80;;;1.53;;
5650;SDS011;40241;52.684;9.758;2024-02-21T12:50:39;1.50;;;1.40;;
5650;SDS011;40241;52.684;9.758;2024-02-21T12:53:05;2.20;;;1.60;;
5650;SDS011;40241;52.684;9.758;2024-02-21T12:55:31;2.00;;;1.50;;
5650;SDS011;40241;52.684;9.758;2024-02-21T12:57:56;1.20;;;1.10;;
5650;SDS011;40241;52.684;9.758;2024-02-21T13:00:27;1.80;;;1.00;;
5650;SDS011;40241;52.684;9.758;2024-02-21T13:02:53;2.07;;;1.50;;
5650;SDS011;40241;52.684;9.758;2024-02-21T13:05:18;2.23;;;1.80;;
5650;SDS011;40241;52.684;9.758;2024-02-21T13:07:43;1.80;;;1.70;;
5650;SDS011;40241;52.684;9.758;2024-02-21T13:10:09;1.47;;;1.30;;
5650;SDS011;40241;52.684;9.758;2024-02-21T13:12:35;1.80;;;1.70;;
5650;SDS011;40241;52.684;9.758;2024-02-21T13:15:00;1.67;;;1.57;;
5650;SDS011;40241;52.684;9.758;2024-02-21T13:17:26;2.23;;;1.40;;
5650;SDS011;40241;52.684;9.758;2024-02-21T13:19:55;2.77;;;1.70;;
5650;SDS011;40241;52.684;9.758;2024-02-21T13:22:20;3.30;;;1.67;;
5650;SDS011;40241;52.684;9.758;2024-02-21T13:24:47;2.10;;;1.73;;
5650;SDS011;40241;52.684;9.758;2024-02-21T13:27:12;2.00;;;1.70;;
5650;SDS011;40241;52.684;9.758;2024-02-21T13:29:38;3.23;;;2.70;;
5650;SDS011;40241;52.684;9.758;2024-02-21T13:32:03;3.77;;;2.47;;
5650;SDS011;40241;52.684;9.758;2024-02-21T13:34:28;2.70;;;2.17;;
5650;SDS011;40241;52.684;9.758;2024-02-21T13:36:54;4.47;;;2.67;;
5650;SDS011;40241;52.684;9.758;2024-02-21T13:39:19;2.80;;;2.60;;
5650;SDS011;40241;52.684;9.758;2024-02-21T13:41:44;3.17;;;2.33;;
5650;SDS011;40241;52.684;9.758;2024-02-21T13:44:10;4.07;;;2.70;;
5650;SDS011;40241;52.684;9.758;2024-02-21T13:46:35;3.20;;;2.90;;
5650;SDS011;40241;52.684;9.758;2024-02-21T13:49:02;6.17;;;3.40;;
5650;SDS011;40241;52.684;9.758;2024-02-21T13:51:30;3.43;;;3.10;;
5650;SDS011;40241;52.684;9.758;2024-02-21T13:53:55;3.87;;;3.10;;
5650;SDS011;40241;52.684;9.758;2024-02-21T13:56:21;4.00;;;3.00;;
5650;SDS011;40241;52.684;9.758;2024-02-21T13:58:47;3.30;;;3.00;;
5650;SDS011;40241;52.684;9.758;2024-02-21T14:01:12;6.20;;;4.30;;
5650;SDS011;40241;52.684;9.758;2024-02-21T14:03:38;4.70;;;3.67;;
5650;SDS011;40241;52.684;9.758;2024-02-21T14:06:03;4.77;;;4.30;;
5650;SDS011;40241;52.684;9.758;2024-02-21T14:08:30;4.07;;;3.60;;
5650;SDS011;40241;52.684;9.758;2024-02-21T14:10:56;6.80;;;4.43;;
5650;SDS011;40241;52.684;9.758;2024-02-21T14:13:24;4.93;;;4.30;;
5650;SDS011;40241;52.684;9.758;2024-02-21T14:15:49;6.50;;;4.73;;
5650;SDS011;40241;52.684;9.758;2024-02-21T14:18:15;4.17;;;3.77;;
5650;SDS011;40241;52.684;9.758;2024-02-21T14:20:41;7.03;;;4.77;;
5650;SDS011;40241;52.684;9.758;2024-02-21T14:23:06;4.90;;;4.20;;
5650;SDS011;40241;52.684;9.758;2024-02-21T14:25:31;5.70;;;4.63;;
5650;SDS011;40241;52.684;9.758;2024-02-21T14:27:58;7.93;;;4.60;;
5650;SDS011;40241;52.684;9.758;2024-02-21T14:30:25;4.17;;;3.87;;
5650;SDS011;40241;52.684;9.758;2024-02-21T14:32:51;4.60;;;3.60;;
5650;SDS011;40241;52.684;9.758;2024-02-21T14:35:16;5.53;;;4.07;;
5650;SDS011;40241;52.684;9.758;2024-02-21T14:37:42;6.60;;;4.40;;
5650;SDS011;40241;52.684;9.758;2024-02-21T14:40:07;5.53;;;3.80;;
5650;SDS011;40241;52.684;9.758;2024-02-21T14:42:33;4.33;;;3.90;;
5650;SDS011;40241;52.684;9.758;2024-02-21T14:44:59;6.63;;;3.93;;
5650;SDS011;40241;52.684;9.758;2024-02-21T14:47:29;3.83;;;3.53;;
5650;SDS011;40241;52.684;9.758;2024-02-21T14:49:58;3.50;;;3.20;;